Time;durP1;ratioP1;P1;durP2;ratioP2;P2;SDS_P1;SDS_P2;PMS_P1;PMS_P2;Temp;Humidity;BMP_temperature;BMP_pressure;BME280_temperature;BME280_humidity;BME280_pressure;Samples;Min_cycle;Max_cycle;Signal;HPM_P1;HPM_P2
2023/03/11 00:02:08;;;;;;;4.85;2.95;;;;;;;0.06;100.00;100620.78;5090038;28;20016;-72
2023/03/11 00:04:34;;;;;;;3.72;1.30;;;;;;;0.02;100.00;100624.63;5089959;28;20032;-72
2023/03/11 00:06:59;;;;;;;1.75;1.10;;;;;;;-0.03;100.00;100635.53;5089804;28;20058;-72
2023/03/11 00:09:25;;;;;;;2.58;1.40;;;;;;;-0.11;100.00;100631.88;5089816;28;20127;-72
2023/03/11 00:11:50;;;;;;;9.00;2.55;;;;;;;-0.16;100.00;100632.28;5089764;28;20020;-72
2023/03/11 00:14:15;;;;;;;8.82;1.77;;;;;;;-0.21;100.00;100639.72;5070194;28;20037;-72
2023/03/11 00:16:41;;;;;;;7.13;2.38;;;;;;;-0.25;100.00;100638.34;5070275;28;20028;-72
2023/03/11 00:19:06;;;;;;;11.90;2.67;;;;;;;-0.28;100.00;100647.28;5070362;28;20550;-72
2023/03/11 00:21:32;;;;;;;3.50;1.27;;;;;;;-0.31;100.00;100641.50;5070157;28;20036;-72
2023/03/11 00:23:59;;;;;;;3.70;1.58;;;;;;;-0.32;100.00;100643.25;5070292;28;20028;-72
2023/03/11 00:26:25;;;;;;;3.45;1.45;;;;;;;-0.30;100.00;100645.75;5070068;28;20086;-71
2023/03/11 00:28:51;;;;;;;6.53;1.75;;;;;;;-0.39;100.00;100641.28;5070419;28;20407;-71
2023/03/11 00:31:17;;;;;;;6.22;1.45;;;;;;;-0.51;100.00;100635.31;5070085;28;20055;-71
2023/03/11 00:33:43;;;;;;;2.92;1.52;;;;;;;-0.35;100.00;100661.03;5069959;28;20032;-71
2023/03/11 00:36:21;;;;;;;2.38;1.52;;;;;;;-0.39;100.00;100657.88;5070003;28;20056;-71
2023/03/11 00:38:46;;;;;;;5.85;1.85;;;;;;;-0.40;100.00;100665.84;5089086;28;20020;-72
2023/03/11 00:41:12;;;;;;;7.65;1.88;;;;;;;-0.41;100.00;100669.44;5088953;28;20027;-71
2023/03/11 00:43:37;;;;;;;5.57;1.63;;;;;;;-0.47;100.00;100661.13;5089394;28;20039;-72
2023/03/11 00:46:04;;;;;;;4.00;1.50;;;;;;;-0.49;100.00;100668.28;5089217;28;20407;-72
2023/03/11 00:48:30;;;;;;;1.25;1.10;;;;;;;-0.49;100.00;100680.56;5089246;28;20024;-72
2023/03/11 00:50:55;;;;;;;2.72;1.17;;;;;;;-0.53;100.00;100677.34;5088974;28;20028;-71
2023/03/11 00:53:21;;;;;;;2.95;1.17;;;;;;;-0.59;100.00;100672.63;5089142;28;20486;-74
2023/03/11 00:55:46;;;;;;;9.77;2.08;;;;;;;-0.60;100.00;100670.97;5069735;28;20028;-72
2023/03/11 00:58:12;;;;;;;2.40;1.23;;;;;;;-0.56;100.00;100684.63;5069651;28;20050;-72
2023/03/11 01:00:38;;;;;;;2.97;1.00;;;;;;;-0.61;100.00;100684.19;5069776;28;20036;-72
2023/03/11 01:03:04;;;;;;;3.03;1.42;;;;;;;-0.65;100.00;100688.88;5069669;28;20483;-72
2023/03/11 01:05:32;;;;;;;6.05;1.83;;;;;;;-0.69;100.00;100682.22;5069684;28;20044;-72
2023/03/11 01:07:58;;;;;;;2.60;1.35;;;;;;;-0.75;100.00;100683.56;5069483;28;20048;-72
2023/03/11 01:10:24;;;;;;;7.47;1.98;;;;;;;-0.81;100.00;100681.47;5069536;28;20051;-72
2023/03/11 01:12:49;;;;;;;5.55;1.58;;;;;;;-0.77;100.00;100695.94;5068327;28;20033;-72
2023/03/11 01:15:22;;;;;;;3.28;1.40;;;;;;;-0.79;100.00;100697.84;5069532;28;20059;-72
2023/03/11 01:17:47;;;;;;;8.05;2.05;;;;;;;-0.81;100.00;100710.25;5069595;28;20028;-72
2023/03/11 01:20:13;;;;;;;2.10;1.15;;;;;;;-0.85;100.00;100713.25;5069666;28;20024;-72
2023/03/11 01:22:39;;;;;;;3.00;1.55;;;;;;;-0.88;100.00;100715.16;5088653;28;20035;-72
2023/03/11 01:25:05;;;;;;;4.55;1.90;;;;;;;-0.91;100.00;100722.44;5088759;28;20386;-72
2023/03/11 01:27:30;;;;;;;4.63;1.45;;;;;;;-0.96;100.00;100720.19;5088629;28;20100;-72
2023/03/11 01:29:56;;;;;;;3.33;1.73;;;;;;;-1.00;100.00;100718.75;5088627;28;20035;-72
2023/03/11 01:32:23;;;;;;;5.90;1.20;;;;;;;-1.08;100.00;100710.72;5088696;28;20035;-72
2023/03/11 01:34:48;;;;;;;3.22;1.35;;;;;;;-1.05;100.00;100727.94;5069192;28;20020;-72
2023/03/11 01:37:14;;;;;;;6.80;1.45;;;;;;;-1.09;100.00;100723.94;5069646;28;20035;-72
2023/03/11 01:39:39;;;;;;;3.80;1.20;;;;;;;-1.14;100.00;100724.31;5069274;28;20028;-72
2023/03/11 01:42:04;;;;;;;6.65;1.80;;;;;;;-1.20;100.00;100720.41;5069388;28;20060;-72
2023/03/11 01:44:30;;;;;;;3.47;1.75;;;;;;;-1.26;100.00;100715.66;5069092;28;20044;-72
2023/03/11 01:46:58;;;;;;;7.82;1.67;;;;;;;-1.28;100.00;100719.34;5069296;28;20028;-72
2023/03/11 01:49:24;;;;;;;9.23;2.03;;;;;;;-1.36;100.00;100715.56;5069169;28;20024;-72
2023/03/11 01:51:56;;;;;;;5.30;1.83;;;;;;;-1.37;100.00;100719.13;5071115;28;20034;-72
2023/03/11 01:54:28;;;;;;;4.35;1.85;;;;;;;-1.37;100.00;100726.16;5071682;28;20468;-72
2023/03/11 01:56:55;;;;;;;5.90;3.00;;;;;;;-1.39;100.00;100718.44;5091994;28;20371;-72
2023/03/11 01:59:34;;;;;;;1.92;1.13;;;;;;;-1.44;100.00;100715.34;5092208;28;20020;-72
2023/03/11 02:02:08;;;;;;;3.17;2.13;;;;;;;-1.48;100.00;100720.94;5092222;28;20020;-72
2023/03/11 02:04:35;;;;;;;4.53;1.50;;;;;;;-1.56;100.00;100717.16;5092264;28;20106;-72
2023/03/11 02:07:02;;;;;;;5.47;1.88;;;;;;;-1.53;100.00;100716.06;5092015;28;20048;-72
2023/03/11 02:09:27;;;;;;;5.65;2.20;;;;;;;-1.57;100.00;100722.53;5092035;28;20070;-72
2023/03/11 02:11:53;;;;;;;2.92;1.83;;;;;;;-1.59;100.00;100720.00;5092086;28;20115;-72
2023/03/11 02:14:19;;;;;;;4.55;1.60;;;;;;;-1.60;100.00;100728.81;5092043;28;20035;-72
2023/03/11 02:16:44;;;;;;;7.13;2.22;;;;;;;-1.70;100.00;100712.19;5091962;28;20353;-72
2023/03/11 02:19:22;;;;;;;7.95;1.95;;;;;;;-1.66;100.00;100731.91;5091797;28;20039;-72
2023/03/11 02:21:48;;;;;;;4.75;1.60;;;;;;;-1.73;100.00;100722.88;5091854;28;20059;-72
2023/03/11 02:24:30;;;;;;;7.35;1.95;;;;;;;-1.70;100.00;100732.25;5091784;28;20556;-72
2023/03/11 02:26:59;;;;;;;6.78;2.10;;;;;;;-1.70;100.00;100734.88;5091811;28;20556;-72
2023/03/11 02:29:26;;;;;;;12.40;3.05;;;;;;;-1.72;100.00;100739.41;5092067;28;20034;-72
2023/03/11 02:31:52;;;;;;;4.18;1.63;;;;;;;-1.73;100.00;100738.56;5091919;28;20028;-72
2023/03/11 02:34:25;;;;;;;4.80;1.80;;;;;;;-1.76;100.00;100728.34;5091663;28;20479;-72
2023/03/11 02:36:50;;;;;;;7.35;1.40;;;;;;;-1.78;100.00;100738.09;5091705;28;20383;-71
2023/03/11 02:39:16;;;;;;;2.53;1.33;;;;;;;-1.75;100.00;100735.25;5091653;28;20043;-72
2023/03/11 02:41:44;;;;;;;4.43;2.42;;;;;;;-1.75;100.00;100744.88;5091464;28;20036;-72
2023/03/11 02:44:14;;;;;;;3.30;1.70;;;;;;;-1.75;100.00;100731.81;5091530;28;20396;-72
2023/03/11 02:46:41;;;;;;;3.20;1.52;;;;;;;-1.82;100.00;100732.28;5091301;28;20023;-72
2023/03/11 02:49:08;;;;;;;5.95;1.30;;;;;;;-1.78;100.00;100730.28;5091389;28;20077;-72
2023/03/11 02:51:34;;;;;;;6.10;1.80;;;;;;;-1.80;100.00;100732.16;5082119;28;20036;-72
2023/03/11 02:54:03;;;;;;;7.30;1.73;;;;;;;-1.81;100.00;100728.72;5071700;28;20034;-72
2023/03/11 02:56:29;;;;;;;3.28;1.63;;;;;;;-1.84;100.00;100730.72;5071763;28;20544;-72
2023/03/11 02:58:54;;;;;;;8.90;2.95;;;;;;;-1.84;100.00;100731.56;5071759;28;20029;-72
2023/03/11 03:01:20;;;;;;;3.53;1.33;;;;;;;-1.83;100.00;100724.56;5071856;28;20024;-72
2023/03/11 03:03:45;;;;;;;2.58;1.95;;;;;;;-1.81;100.00;100728.72;5071050;28;20415;-72
2023/03/11 03:06:11;;;;;;;5.13;1.95;;;;;;;-1.80;100.00;100729.56;5071592;28;20056;-72
2023/03/11 03:08:36;;;;;;;5.32;1.58;;;;;;;-1.80;100.00;100727.75;5071471;28;20032;-72
2023/03/11 03:11:02;;;;;;;4.18;1.60;;;;;;;-1.81;100.00;100723.50;5071636;28;20095;-72
2023/03/11 03:13:28;;;;;;;3.70;1.67;;;;;;;-1.81;100.00;100727.88;5071358;28;20024;-71
2023/03/11 03:15:54;;;;;;;8.35;2.47;;;;;;;-1.79;100.00;100732.03;5089282;28;20123;-71
2023/03/11 03:18:19;;;;;;;4.35;1.90;;;;;;;-1.77;100.00;100743.19;5090811;28;20110;-72
2023/03/11 03:20:45;;;;;;;4.43;2.42;;;;;;;-1.76;100.00;100744.03;5089505;28;20028;-71
2023/03/11 03:23:10;;;;;;;15.80;2.17;;;;;;;-1.75;100.00;100747.50;5089224;28;20395;-72
2023/03/11 03:25:35;;;;;;;4.70;1.77;;;;;;;-1.98;100.00;100726.56;5090595;28;20039;-72
2023/03/11 03:28:01;;;;;;;6.25;1.77;;;;;;;-1.73;100.00;100769.91;5090519;28;20027;-72
2023/03/11 03:30:28;;;;;;;2.08;1.48;;;;;;;-1.72;100.00;100765.56;5090502;28;20035;-72
2023/03/11 03:32:54;;;;;;;1.73;1.23;;;;;;;-1.76;100.00;100778.00;5090351;28;20031;-71
2023/03/11 03:35:20;;;;;;;4.25;1.95;;;;;;;-1.81;100.00;100786.22;5090516;28;20486;-71
2023/03/11 03:37:45;;;;;;;12.20;3.08;;;;;;;-1.82;100.00;100791.56;5090297;28;20024;-72
2023/03/11 03:40:11;;;;;;;6.03;1.92;;;;;;;-1.84;100.00;100790.84;5090456;28;20034;-72
2023/03/11 03:42:36;;;;;;;4.05;1.73;;;;;;;-1.84;100.00;100796.91;5069766;28;20028;-72
2023/03/11 03:45:05;;;;;;;5.45;1.95;;;;;;;-1.86;100.00;100790.97;5070815;28;20038;-72
2023/03/11 03:47:32;;;;;;;3.40;1.80;;;;;;;-1.88;100.00;100799.88;5070493;28;20020;-72
2023/03/11 03:49:57;;;;;;;7.72;3.05;;;;;;;-1.90;100.00;100794.75;5070763;28;20647;-72
2023/03/11 03:52:22;;;;;;;12.38;3.60;;;;;;;-1.94;100.00;100798.53;5070445;28;20120;-72
2023/03/11 03:54:48;;;;;;;3.88;1.30;;;;;;;-1.93;100.00;100802.03;5070668;28;20024;-71
2023/03/11 03:57:13;;;;;;;6.28;1.70;;;;;;;-1.93;100.00;100802.84;5070463;28;20158;-71
2023/03/11 03:59:38;;;;;;;4.55;1.50;;;;;;;-1.91;100.00;100802.72;5070663;28;20131;-72
2023/03/11 04:02:04;;;;;;;5.45;2.10;;;;;;;-1.95;100.00;100799.50;5088444;28;20024;-71
2023/03/11 04:04:29;;;;;;;11.43;2.17;;;;;;;-1.96;100.00;100808.31;5089931;28;20501;-71
2023/03/11 04:06:55;;;;;;;11.70;3.03;;;;;;;-1.99;100.00;100801.53;5089436;28;20060;-72
2023/03/11 04:09:20;;;;;;;8.60;1.70;;;;;;;-2.01;100.00;100807.81;5089883;28;20034;-72
2023/03/11 04:11:46;;;;;;;7.38;2.25;;;;;;;-2.07;100.00;100808.28;5089744;28;20921;-71
2023/03/11 04:14:11;;;;;;;5.45;2.15;;;;;;;-2.05;100.00;100809.81;5089467;28;20047;-72
2023/03/11 04:16:37;;;;;;;5.38;1.92;;;;;;;-2.05;100.00;100816.84;5089194;28;20027;-71
2023/03/11 04:19:04;;;;;;;13.82;3.53;;;;;;;-2.02;100.00;100821.81;5089523;28;20028;-72
2023/03/11 04:21:30;;;;;;;5.88;2.10;;;;;;;-2.02;100.00;100816.59;5089395;28;20028;-72
2023/03/11 04:23:55;;;;;;;2.45;1.80;;;;;;;-2.11;100.00;100812.09;5089471;28;20024;-72
2023/03/11 04:26:21;;;;;;;7.30;1.88;;;;;;;-2.13;100.00;100809.56;5089429;28;20063;-71
2023/03/11 04:28:46;;;;;;;4.72;1.90;;;;;;;-2.05;100.00;100829.91;5088280;28;20258;-72
2023/03/11 04:31:12;;;;;;;6.75;2.03;;;;;;;-2.06;100.00;100820.41;5089256;28;20115;-72
2023/03/11 04:33:37;;;;;;;6.07;1.95;;;;;;;-2.09;100.00;100824.09;5089303;28;20063;-72
2023/03/11 04:36:07;;;;;;;3.10;1.40;;;;;;;-2.11;100.00;100823.34;5089116;28;20077;-72
2023/03/11 04:38:33;;;;;;;10.13;2.47;;;;;;;-2.12;100.00;100828.69;5089261;28;20390;-72
2023/03/11 04:41:00;;;;;;;3.28;1.48;;;;;;;-2.12;100.00;100834.78;5089210;28;20122;-72
2023/03/11 04:43:26;;;;;;;2.92;1.77;;;;;;;-2.13;100.00;100832.25;5089267;28;20024;-72
2023/03/11 04:45:51;;;;;;;7.85;1.58;;;;;;;-2.15;100.00;100823.69;5089309;28;20424;-72
2023/03/11 04:48:16;;;;;;;4.30;1.70;;;;;;;-2.16;100.00;100829.88;5089207;28;20529;-72
2023/03/11 04:50:42;;;;;;;4.95;2.42;;;;;;;-2.18;100.00;100829.16;5089093;28;20110;-72
2023/03/11 04:53:07;;;;;;;3.22;1.90;;;;;;;-2.21;100.00;100827.59;5088971;28;20028;-71
2023/03/11 04:55:32;;;;;;;7.13;2.72;;;;;;;-2.22;100.00;100826.78;5088854;28;20055;-71
2023/03/11 04:57:58;;;;;;;4.43;2.13;;;;;;;-2.22;100.00;100832.00;5089006;28;20032;-72
2023/03/11 05:00:23;;;;;;;2.78;1.67;;;;;;;-2.22;100.00;100823.34;5088831;28;20032;-72
2023/03/11 05:02:49;;;;;;;4.75;2.92;;;;;;;-2.23;100.00;100829.50;5088927;28;20032;-72
2023/03/11 05:05:15;;;;;;;6.68;2.15;;;;;;;-2.29;100.00;100811.69;5088793;28;20024;-72
2023/03/11 05:07:41;;;;;;;4.32;2.63;;;;;;;-2.23;100.00;100829.50;5088707;28;20819;-72
2023/03/11 05:10:07;;;;;;;4.22;1.63;;;;;;;-2.29;100.00;100822.94;5089022;28;20152;-72
2023/03/11 05:12:33;;;;;;;7.43;2.00;;;;;;;-2.27;100.00;100831.50;5088849;28;20028;-71
2023/03/11 05:14:58;;;;;;;5.60;2.05;;;;;;;-2.33;100.00;100820.66;5088753;28;20123;-72
2023/03/11 05:17:23;;;;;;;3.17;1.80;;;;;;;-2.31;100.00;100837.91;5088729;28;20068;-71
2023/03/11 05:19:50;;;;;;;7.05;1.88;;;;;;;-2.32;100.00;100836.25;5088742;28;20035;-72
2023/03/11 05:22:15;;;;;;;7.28;3.50;;;;;;;-2.32;100.00;100849.31;5069213;28;20677;-71
2023/03/11 05:24:41;;;;;;;7.90;2.90;;;;;;;-2.32;100.00;100836.25;5069525;28;20115;-71
2023/03/11 05:27:06;;;;;;;3.55;1.88;;;;;;;-2.33;100.00;100850.25;5071721;28;20033;-71
2023/03/11 05:29:31;;;;;;;4.20;2.70;;;;;;;-2.33;100.00;100854.63;5073526;28;20028;-72
2023/03/11 05:31:57;;;;;;;10.25;2.70;;;;;;;-2.35;100.00;100857.38;5073175;28;20391;-71
2023/03/11 05:34:22;;;;;;;3.50;1.48;;;;;;;-2.37;100.00;100845.38;5072031;28;20036;-71
2023/03/11 05:36:48;;;;;;;7.28;3.40;;;;;;;-2.36;100.00;100850.47;5073020;28;20016;-71
2023/03/11 05:39:13;;;;;;;6.35;2.38;;;;;;;-2.38;100.00;100851.53;5073321;28;20372;-71
2023/03/11 05:41:39;;;;;;;7.72;2.05;;;;;;;-2.37;100.00;100859.25;5073015;28;20020;-72
2023/03/11 05:44:05;;;;;;;3.92;2.08;;;;;;;-2.38;100.00;100859.34;5092358;28;20042;-72
2023/03/11 05:46:31;;;;;;;7.18;2.50;;;;;;;-2.39;100.00;100861.13;5092537;28;20043;-72
2023/03/11 05:48:58;;;;;;;3.55;1.67;;;;;;;-2.41;100.00;100870.88;5092223;28;20035;-72
2023/03/11 05:51:23;;;;;;;1.80;1.60;;;;;;;-2.42;100.00;100877.03;5092636;28;20032;-71
2023/03/11 05:53:49;;;;;;;8.80;1.90;;;;;;;-2.49;100.00;100866.22;5091035;28;20028;-71
2023/03/11 05:56:15;;;;;;;5.82;2.38;;;;;;;-2.48;100.00;100872.28;5092348;28;20028;-71
2023/03/11 05:58:41;;;;;;;4.45;2.58;;;;;;;-2.46;100.00;100881.66;5092183;28;20032;-71
2023/03/11 06:01:11;;;;;;;4.60;2.65;;;;;;;-2.46;100.00;100886.88;5092253;28;20475;-71
2023/03/11 06:03:37;;;;;;;3.33;2.33;;;;;;;-2.49;100.00;100894.94;5091875;28;20032;-71
2023/03/11 06:06:05;;;;;;;6.93;2.85;;;;;;;-2.48;100.00;100893.16;5091911;28;20032;-71
2023/03/11 06:08:33;;;;;;;4.20;2.30;;;;;;;-2.49;100.00;100897.56;5091828;28;20074;-71
2023/03/11 06:11:07;;;;;;;5.03;1.85;;;;;;;-2.50;100.00;100898.47;5092003;28;20232;-72
2023/03/11 06:13:32;;;;;;;8.73;2.47;;;;;;;-2.60;100.00;100881.81;5091622;28;20028;-71
2023/03/11 06:15:58;;;;;;;8.38;3.13;;;;;;;-2.50;100.00;100905.50;5091803;28;20036;-72
2023/03/11 06:18:25;;;;;;;6.90;2.20;;;;;;;-2.49;100.00;100907.16;5090252;28;20487;-71
2023/03/11 06:20:51;;;;;;;10.13;2.33;;;;;;;-2.48;100.00;100916.66;5091907;28;20056;-71
2023/03/11 06:23:17;;;;;;;5.20;2.00;;;;;;;-2.51;100.00;100902.06;5091517;28;20901;-71
2023/03/11 06:25:42;;;;;;;6.05;3.25;;;;;;;-2.51;100.00;100898.63;5091702;28;20131;-71
2023/03/11 06:28:08;;;;;;;3.95;2.03;;;;;;;-2.50;100.00;100902.88;5091840;28;20032;-71
2023/03/11 06:30:33;;;;;;;7.78;2.28;;;;;;;-2.50;100.00;100910.72;5091509;28;20028;-72
2023/03/11 06:32:59;;;;;;;3.60;2.17;;;;;;;-2.49;100.00;100913.22;5089851;28;20386;-71
2023/03/11 06:35:24;;;;;;;6.63;2.42;;;;;;;-2.53;100.00;100911.78;5091563;28;20106;-72
2023/03/11 06:37:50;;;;;;;6.57;2.40;;;;;;;-2.40;100.00;100931.78;5090768;28;20031;-72
2023/03/11 06:40:15;;;;;;;5.82;3.10;;;;;;;-2.41;100.00;100925.72;5091530;28;20031;-72
2023/03/11 06:42:40;;;;;;;5.15;2.40;;;;;;;-2.36;100.00;100926.19;5091718;28;20028;-72
2023/03/11 06:45:06;;;;;;;5.82;2.42;;;;;;;-2.22;100.00;100933.88;5091088;28;20044;-72
2023/03/11 06:47:32;;;;;;;5.97;2.80;;;;;;;-2.22;100.00;100928.66;5091266;28;20047;-72
2023/03/11 06:49:57;;;;;;;6.50;2.03;;;;;;;-2.13;100.00;100939.38;5091080;28;20386;-71
2023/03/11 06:52:23;;;;;;;6.40;2.63;;;;;;;-2.10;100.00;100947.81;5091104;28;20072;-72
2023/03/11 06:54:48;;;;;;;5.65;2.70;;;;;;;-1.99;100.00;100945.25;5091082;28;20089;-72
2023/03/11 06:57:15;;;;;;;15.80;3.60;;;;;;;-1.77;100.00;100944.50;5091176;28;20027;-71
2023/03/11 06:59:40;;;;;;;6.57;2.78;;;;;;;-1.48;100.00;100959.78;5090828;28;20035;-72
2023/03/11 07:02:09;;;;;;;4.68;2.40;;;;;;;-1.42;100.00;100956.69;5090983;28;20032;-72
2023/03/11 07:04:34;;;;;;;8.35;2.38;;;;;;;-1.53;100.00;100951.44;5090824;28;20056;-72
2023/03/11 07:06:59;;;;;;;6.10;2.40;;;;;;;-1.31;100.00;100966.38;5090904;28;20087;-72
2023/03/11 07:09:26;;;;;;;5.15;2.45;;;;;;;-1.15;100.00;100974.69;5090796;28;20047;-72
2023/03/11 07:11:51;;;;;;;5.90;2.05;;;;;;;-1.15;100.00;100974.69;5090897;28;20043;-72
2023/03/11 07:14:18;;;;;;;14.43;3.30;;;;;;;-1.10;100.00;100984.81;5090731;28;20024;-72
2023/03/11 07:16:44;;;;;;;8.90;3.10;;;;;;;-1.03;100.00;100985.16;5090608;28;20046;-72
2023/03/11 07:19:10;;;;;;;6.78;3.22;;;;;;;-1.00;100.00;100983.13;5090604;28;20398;-72
2023/03/11 07:21:35;;;;;;;4.43;2.58;;;;;;;-1.04;100.00;100980.91;5090571;28;20427;-72
2023/03/11 07:24:01;;;;;;;8.18;3.67;;;;;;;-0.92;100.00;100985.16;5090611;28;20030;-72
2023/03/11 07:26:28;;;;;;;8.80;3.42;;;;;;;-0.82;100.00;100986.13;5090548;28;20103;-72
2023/03/11 07:28:55;;;;;;;7.63;3.08;;;;;;;-0.73;100.00;100993.25;5090794;28;20028;-72
2023/03/11 07:31:24;;;;;;;6.22;3.15;;;;;;;-0.54;100.00;100992.66;5090460;28;20028;-72
2023/03/11 07:33:50;;;;;;;6.30;3.47;;;;;;;-0.39;100.00;100993.22;5088794;28;20034;-72
2023/03/11 07:36:18;;;;;;;5.60;2.58;;;;;;;-0.32;100.00;100996.19;5090185;28;20031;-72
2023/03/11 07:38:44;;;;;;;6.15;2.58;;;;;;;-0.33;100.00;100997.16;5090204;28;20027;-72
2023/03/11 07:41:11;;;;;;;5.50;2.67;;;;;;;-0.32;100.00;100990.94;5090094;28;20115;-72
2023/03/11 07:43:37;;;;;;;7.03;3.17;;;;;;;-0.19;100.00;100999.47;5090028;28;20122;-72
2023/03/11 07:46:04;;;;;;;6.35;2.58;;;;;;;-0.12;100.00;101003.28;5090065;28;20101;-72
2023/03/11 07:48:29;;;;;;;11.95;5.10;;;;;;;-0.10;100.00;100990.88;5089730;28;20110;-72
2023/03/11 07:51:06;;;;;;;10.38;3.25;;;;;;;0.21;100.00;101004.97;5089856;28;20154;-72
2023/03/11 07:53:33;;;;;;;9.88;3.47;;;;;;;0.69;100.00;101001.00;5089840;28;20028;-72
2023/03/11 07:55:59;;;;;;;5.70;2.72;;;;;;;1.12;100.00;101002.59;5089859;28;20203;-72
2023/03/11 07:58:26;;;;;;;7.93;3.22;;;;;;;2.12;100.00;101017.53;5070199;28;20052;-72
2023/03/11 08:00:53;;;;;;;5.50;2.55;;;;;;;3.61;100.00;101017.72;5068932;28;20058;-72
2023/03/11 08:03:18;;;;;;;6.78;3.78;;;;;;;4.62;98.78;101022.84;5070162;28;20108;-72
2023/03/11 08:05:44;;;;;;;8.13;3.20;;;;;;;4.48;93.14;101020.72;5070213;28;20123;-72
2023/03/11 08:08:09;;;;;;;11.88;2.65;;;;;;;4.21;95.09;101024.31;5070104;28;20109;-72
2023/03/11 08:10:38;;;;;;;7.43;3.33;;;;;;;4.08;92.73;101025.50;5089231;28;20074;-72
2023/03/11 08:13:04;;;;;;;5.57;2.63;;;;;;;4.60;93.04;101024.81;5089521;28;20031;-73
2023/03/11 08:15:29;;;;;;;7.90;2.75;;;;;;;4.76;90.99;101024.91;5089814;28;20024;-70
2023/03/11 08:17:54;;;;;;;6.57;2.70;;;;;;;4.76;89.61;101030.19;5089296;28;20040;-74
2023/03/11 08:20:20;;;;;;;4.20;2.67;;;;;;;4.71;88.29;101043.03;5089368;28;20131;-73
2023/03/11 08:22:45;;;;;;;7.72;2.65;;;;;;;4.48;86.40;101028.66;5087898;28;21003;-73
2023/03/11 08:25:10;;;;;;;3.70;2.33;;;;;;;4.25;88.00;101038.88;5089411;28;20218;-73
2023/03/11 08:27:37;;;;;;;11.95;3.97;;;;;;;4.36;89.32;101036.00;5089325;28;20063;-73
2023/03/11 08:30:03;;;;;;;5.45;2.35;;;;;;;4.32;86.27;101029.34;5078644;28;20039;-73
2023/03/11 08:32:30;;;;;;;4.60;1.85;;;;;;;3.98;85.98;101029.19;5069604;28;20041;-73
2023/03/11 08:34:56;;;;;;;5.93;3.00;;;;;;;3.68;87.66;101033.81;5069946;28;20442;-72
2023/03/11 08:37:22;;;;;;;7.85;2.45;;;;;;;3.40;88.26;101019.78;5068216;28;20426;-72
2023/03/11 08:39:47;;;;;;;5.47;2.15;;;;;;;3.24;90.92;101034.41;5075531;28;20029;-72
2023/03/11 08:42:13;;;;;;;5.38;2.35;;;;;;;3.10;92.00;101034.88;5069740;28;20598;-72
2023/03/11 08:44:38;;;;;;;8.35;2.85;;;;;;;2.93;92.21;101039.06;5069882;28;20051;-72
2023/03/11 08:47:03;;;;;;;5.88;2.95;;;;;;;2.78;91.37;101048.44;5069630;28;20136;-73
2023/03/11 08:49:29;;;;;;;6.60;4.20;;;;;;;2.69;92.86;101052.72;5069601;28;20107;-71
2023/03/11 08:51:54;;;;;;;6.78;2.15;;;;;;;2.60;93.34;101051.75;5069383;28;20446;-71
2023/03/11 08:54:19;;;;;;;3.35;1.88;;;;;;;2.55;93.17;101066.31;5069438;28;20051;-72
2023/03/11 08:56:46;;;;;;;4.22;2.00;;;;;;;2.49;91.26;101057.19;5070586;28;20545;-72
2023/03/11 08:59:12;;;;;;;6.18;2.33;;;;;;;2.51;89.44;101065.75;5069884;28;20037;-72
2023/03/11 09:01:38;;;;;;;3.90;2.28;;;;;;;2.59;89.95;101060.63;5068900;28;20044;-73
2023/03/11 09:04:03;;;;;;;6.63;1.85;;;;;;;2.68;86.11;101071.31;5072891;28;20373;-73
2023/03/11 09:06:29;;;;;;;5.50;2.10;;;;;;;2.76;88.66;101080.16;5071602;28;20075;-73
2023/03/11 09:08:55;;;;;;;9.60;3.10;;;;;;;2.75;87.30;101062.69;5071093;28;20529;-73
2023/03/11 09:11:21;;;;;;;4.07;1.60;;;;;;;2.82;86.85;101074.31;5072386;28;20336;-73
2023/03/11 09:13:47;;;;;;;3.42;1.42;;;;;;;2.81;80.37;101071.84;5070860;28;20036;-73
2023/03/11 09:16:14;;;;;;;5.47;1.45;;;;;;;2.86;78.02;101074.88;5072591;28;20040;-73
2023/03/11 09:18:39;;;;;;;7.70;2.05;;;;;;;2.89;73.45;101082.50;5071588;28;20357;-75
2023/03/11 09:21:05;;;;;;;1.73;1.00;;;;;;;3.04;80.89;101078.47;5077671;28;20027;-74
2023/03/11 09:23:30;;;;;;;5.68;2.42;;;;;;;3.13;77.91;101070.66;5074706;28;20024;-74
2023/03/11 09:25:56;;;;;;;2.75;0.80;;;;;;;3.17;76.85;101069.41;5077536;28;20116;-74
2023/03/11 09:28:21;;;;;;;1.25;1.15;;;;;;;3.18;74.78;101065.81;5079168;28;20028;-74
2023/03/11 09:30:46;;;;;;;5.35;1.20;;;;;;;3.23;74.73;101079.38;5081684;28;20031;-74
2023/03/11 09:33:12;;;;;;;6.80;1.67;;;;;;;3.26;76.50;101077.28;5081608;28;20387;-74
2023/03/11 09:35:38;;;;;;;7.78;1.80;;;;;;;3.26;76.26;101076.47;5080675;28;20050;-74
2023/03/11 09:38:03;;;;;;;2.75;1.10;;;;;;;3.29;72.17;101081.44;5087642;28;20081;-74
2023/03/11 09:40:45;;;;;;;3.88;1.40;;;;;;;3.42;75.78;101087.22;5070999;28;20025;-75
2023/03/11 09:43:34;;;;;;;;;;;;;;;3.54;82.36;101085.25;5076875;28;20028;-75
2023/03/11 09:46:18;;;;;;;2.60;1.17;;;;;;;3.68;76.08;101094.47;5083152;28;19907;-74
2023/03/11 09:48:53;;;;;;;3.95;0.82;;;;;;;3.69;71.61;101101.41;5077462;28;20033;-74
2023/03/11 09:51:26;;;;;;;9.35;1.20;;;;;;;3.77;70.61;101093.59;5084042;28;20321;-75
2023/03/11 09:54:01;;;;;;;1.50;1.27;;;;;;;3.86;71.27;101097.19;5083914;28;20387;-72
2023/03/11 09:56:27;;;;;;;2.85;1.30;;;;;;;3.88;70.22;101098.69;5069530;28;20024;-72
2023/03/11 09:59:03;;;;;;;7.07;0.85;;;;;;;3.95;72.04;101091.81;5074800;28;20032;-72
2023/03/11 10:01:41;;;;;;;3.28;1.23;;;;;;;4.06;70.81;101089.97;5088814;28;20028;-72
2023/03/11 10:04:25;;;;;;;6.82;1.17;;;;;;;4.10;70.38;101086.88;5088541;28;20030;-73
2023/03/11 10:06:51;;;;;;;3.45;1.15;;;;;;;4.05;67.92;101091.78;5082145;28;20044;-72
2023/03/11 10:09:38;;;;;;;5.40;1.38;;;;;;;4.09;69.33;101097.63;5085071;28;20032;-72
2023/03/11 10:12:21;;;;;;;5.25;1.02;;;;;;;4.06;69.12;101097.88;5071918;28;20477;-70
2023/03/11 10:15:06;;;;;;;13.45;2.30;;;;;;;4.06;69.27;101095.25;5079293;28;20038;-75
2023/03/11 10:17:53;;;;;;;2.63;0.73;;;;;;;4.02;66.19;101094.72;5090664;28;20433;-72
2023/03/11 10:20:27;;;;;;;2.50;1.45;;;;;;;3.95;68.74;101089.19;5092108;28;20099;-74
2023/03/11 10:23:13;;;;;;;5.03;1.17;;;;;;;3.96;71.22;101097.97;5084687;28;20023;-75
2023/03/11 10:26:05;;;;;;;0.85;0.85;;;;;;;4.03;70.04;101106.09;5086828;28;20032;-75
2023/03/11 10:29:01;;;;;;;4.88;1.50;;;;;;;4.14;72.58;101109.38;5077661;28;20114;-75
2023/03/11 10:31:33;;;;;;;7.07;1.50;;;;;;;4.27;72.10;101106.38;5083495;28;20135;-75
2023/03/11 10:34:09;;;;;;;3.40;1.00;;;;;;;4.35;67.21;101095.91;5083133;28;20060;-75
2023/03/11 10:36:45;;;;;;;5.07;1.20;;;;;;;4.37;64.81;101096.56;5080558;28;20055;-75
2023/03/11 10:39:10;;;;;;;1.52;0.82;;;;;;;4.60;67.34;101115.44;5078579;28;20020;-75
2023/03/11 10:41:44;;;;;;;2.28;0.90;;;;;;;4.65;69.91;101109.72;5078851;28;20037;-74
2023/03/11 10:44:18;;;;;;;5.15;1.20;;;;;;;4.66;67.25;101113.19;5078231;28;20035;-75
2023/03/11 10:46:44;;;;;;;2.78;1.05;;;;;;;4.53;63.81;101110.91;5072304;28;20086;-75
2023/03/11 10:49:14;;;;;;;1.20;0.70;;;;;;;4.61;64.28;101113.63;5078889;28;20024;-75
2023/03/11 10:51:43;;;;;;;1.10;1.00;;;;;;;4.67;62.77;101113.03;5089158;28;20380;-75
2023/03/11 10:54:21;;;;;;;1.98;1.10;;;;;;;4.76;63.06;101119.22;5081661;28;20063;-75
2023/03/11 10:56:53;;;;;;;1.48;1.00;;;;;;;4.72;61.83;101108.13;5081231;28;20081;-75
2023/03/11 10:59:30;;;;;;;1.40;0.95;;;;;;;4.85;64.06;101110.38;5086232;28;20474;-75
2023/03/11 11:02:26;;;;;;;1.65;0.93;;;;;;;4.90;63.03;101109.91;5083121;28;20060;-75
2023/03/11 11:05:07;;;;;;;3.03;1.85;;;;;;;4.90;64.90;101105.47;5085470;28;20434;-74
2023/03/11 11:07:40;;;;;;;3.13;0.80;;;;;;;4.83;60.17;101099.13;5090622;28;20052;-74
2023/03/11 11:10:15;;;;;;;1.92;0.88;;;;;;;4.90;63.14;101099.34;5085093;28;20051;-75
2023/03/11 11:12:55;;;;;;;4.40;1.20;;;;;;;4.98;62.26;101104.72;5072129;28;20020;-75
2023/03/11 11:15:51;;;;;;;6.43;1.65;;;;;;;4.98;64.79;101110.00;5088303;28;20089;-74
2023/03/11 11:18:30;;;;;;;2.38;1.10;;;;;;;4.96;64.78;101102.22;5086502;28;20511;-75
2023/03/11 11:21:06;;;;;;;6.03;1.80;;;;;;;5.04;63.17;101114.66;5079662;28;20024;-74
2023/03/11 11:23:41;;;;;;;2.80;1.02;;;;;;;5.13;62.64;101119.00;5090377;28;20020;-74
2023/03/11 11:26:19;;;;;;;2.47;0.93;;;;;;;5.25;62.17;101116.94;5081367;28;20117;-74